sensor_id;sensor_type;location;lat;lon;timestamp;P1;P2;P0
72031;PMS5003;49185;42.320;23.198;2023-02-28T00:01:39;2.00;1.00;0.00
72031;PMS5003;49185;42.320;23.198;2023-02-28T00:04:04;2.00;1.00;0.00
72031;PMS5003;49185;42.320;23.198;2023-02-28T00:06:30;2.00;1.00;0.00
72031;PMS5003;49185;42.320;23.198;2023-02-28T00:08:55;2.00;1.00;0.00
72031;PMS5003;49185;42.320;23.198;2023-02-28T00:11:21;2.00;1.00;0.00
72031;PMS5003;49185;42.320;23.198;2023-02-28T00:13:46;3.00;2.00;0.00
72031;PMS5003;49185;42.320;23.198;2023-02-28T00:16:13;3.75;2.75;0.00
72031;PMS5003;49185;42.320;23.198;2023-02-28T00:18:41;4.00;2.50;0.00
72031;PMS5003;49185;42.320;23.198;2023-02-28T00:21:06;4.00;4.00;0.00
72031;PMS5003;49185;42.320;23.198;2023-02-28T00:23:32;8.50;7.50;2.25
72031;PMS5003;49185;42.320;23.198;2023-02-28T00:25:58;7.25;5.75;2.00
72031;PMS5003;49185;42.320;23.198;2023-02-28T00:28:24;2.67;2.00;0.00
72031;PMS5003;49185;42.320;23.198;2023-02-28T00:30:49;3.00;3.00;0.00
72031;PMS5003;49185;42.320;23.198;2023-02-28T00:33:15;6.33;6.00;0.00
72031;PMS5003;49185;42.320;23.198;2023-02-28T00:35:40;8.00;6.33;1.00
72031;PMS5003;49185;42.320;23.198;2023-02-28T00:38:06;6.00;4.00;2.00
72031;PMS5003;49185;42.320;23.198;2023-02-28T00:40:31;9.67;7.67;3.00
72031;PMS5003;49185;42.320;23.198;2023-02-28T00:42:57;9.00;7.00;2.00
72031;PMS5003;49185;42.320;23.198;2023-02-28T00:45:22;9.00;9.00;3.00
72031;PMS5003;49185;42.320;23.198;2023-02-28T00:47:47;6.67;6.00;1.33
72031;PMS5003;49185;42.320;23.198;2023-02-28T00:50:13;6.00;5.67;1.00
72031;PMS5003;49185;42.320;23.198;2023-02-28T00:52:38;7.00;6.00;1.00
72031;PMS5003;49185;42.320;23.198;2023-02-28T00:55:04;6.00;6.00;2.00
72031;PMS5003;49185;42.320;23.198;2023-02-28T00:57:30;7.50;6.00;2.00
72031;PMS5003;49185;42.320;23.198;2023-02-28T00:59:55;6.00;6.00;1.67
72031;PMS5003;49185;42.320;23.198;2023-02-28T01:02:21;6.33;4.00;1.00
72031;PMS5003;49185;42.320;23.198;2023-02-28T01:04:48;4.00;3.00;0.00
72031;PMS5003;49185;42.320;23.198;2023-02-28T01:07:13;3.25;2.75;0.00
72031;PMS5003;49185;42.320;23.198;2023-02-28T01:09:39;2.00;2.00;0.00
72031;PMS5003;49185;42.320;23.198;2023-02-28T01:12:05;1.00;1.00;0.00
72031;PMS5003;49185;42.320;23.198;2023-02-28T01:14:32;2.00;1.25;0.00
72031;PMS5003;49185;42.320;23.198;2023-02-28T01:16:58;2.00;2.00;0.00
72031;PMS5003;49185;42.320;23.198;2023-02-28T01:19:24;5.00;3.33;0.00
72031;PMS5003;49185;42.320;23.198;2023-02-28T01:21:49;2.00;2.00;0.00
72031;PMS5003;49185;42.320;23.198;2023-02-28T01:24:14;2.00;2.00;0.00
72031;PMS5003;49185;42.320;23.198;2023-02-28T01:26:40;3.67;3.33;0.00
72031;PMS5003;49185;42.320;23.198;2023-02-28T01:29:05;5.00;4.00;0.00
72031;PMS5003;49185;42.320;23.198;2023-02-28T01:31:31;6.33;6.33;0.00
72031;PMS5003;49185;42.320;23.198;2023-02-28T01:33:56;6.67;6.00;1.00
72031;PMS5003;49185;42.320;23.198;2023-02-28T01:36:22;8.33;7.00;3.00
72031;PMS5003;49185;42.320;23.198;2023-02-28T01:38:49;7.00;6.00;1.00
72031;PMS5003;49185;42.320;23.198;2023-02-28T01:41:25;6.00;6.00;1.00
72031;PMS5003;49185;42.320;23.198;2023-02-28T01:46:25;4.00;3.00;0.00
72031;PMS5003;49185;42.320;23.198;2023-02-28T01:48:51;5.00;4.00;0.00
72031;PMS5003;49185;42.320;23.198;2023-02-28T01:51:29;5.75;4.75;1.00
72031;PMS5003;49185;42.320;23.198;2023-02-28T01:54:01;5.00;5.00;1.00
72031;PMS5003;49185;42.320;23.198;2023-02-28T01:56:32;3.75;3.50;1.00
72031;PMS5003;49185;42.320;23.198;2023-02-28T01:59:00;4.00;4.00;1.00
72031;PMS5003;49185;42.320;23.198;2023-02-28T02:01:26;4.00;4.00;1.00
72031;PMS5003;49185;42.320;23.198;2023-02-28T02:03:54;3.00;3.00;1.00
72031;PMS5003;49185;42.320;23.198;2023-02-28T02:06:30;4.00;4.00;1.00
72031;PMS5003;49185;42.320;23.198;2023-02-28T02:09:01;5.00;4.00;1.00
72031;PMS5003;49185;42.320;23.198;2023-02-28T02:11:26;3.33;3.33;0.00
72031;PMS5003;49185;42.320;23.198;2023-02-28T02:25:11;5.00;5.00;1.00
72031;PMS5003;49185;42.320;23.198;2023-02-28T02:38:36;3.00;2.00;0.00
72031;PMS5003;49185;42.320;23.198;2023-02-28T02:43:48;3.75;2.75;0.00
72031;PMS5003;49185;42.320;23.198;2023-02-28T02:46:25;3.00;3.00;0.00
72031;PMS5003;49185;42.320;23.198;2023-02-28T02:48:55;1.75;1.75;0.00
72031;PMS5003;49185;42.320;23.198;2023-02-28T02:51:25;0.00;0.00;0.00
72031;PMS5003;49185;42.320;23.198;2023-02-28T02:53:54;2.25;1.00;0.00
72031;PMS5003;49185;42.320;23.198;2023-02-28T02:56:26;5.00;3.25;0.00
72031;PMS5003;49185;42.320;23.198;2023-02-28T02:58:54;4.25;4.25;0.00
72031;PMS5003;49185;42.320;23.198;2023-02-28T03:01:26;5.00;3.00;0.00
72031;PMS5003;49185;42.320;23.198;2023-02-28T03:03:59;3.00;2.75;0.00
72031;PMS5003;49185;42.320;23.198;2023-02-28T03:06:28;6.00;5.00;0.00
72031;PMS5003;49185;42.320;23.198;2023-02-28T03:08:53;6.00;4.33;1.00
72031;PMS5003;49185;42.320;23.198;2023-02-28T03:11:19;6.33;5.00;2.00
72031;PMS5003;49185;42.320;23.198;2023-02-28T03:13:48;6.00;6.00;2.00
72031;PMS5003;49185;42.320;23.198;2023-02-28T03:27:06;4.00;4.00;1.00
72031;PMS5003;49185;42.320;23.198;2023-02-28T03:29:42;4.50;3.00;1.00
72031;PMS5003;49185;42.320;23.198;2023-02-28T03:32:24;3.00;3.00;1.75
72031;PMS5003;49185;42.320;23.198;2023-02-28T03:34:54;5.00;5.00;2.00
72031;PMS5003;49185;42.320;23.198;2023-02-28T03:37:27;4.00;3.50;1.50
72031;PMS5003;49185;42.320;23.198;2023-02-28T03:39:57;4.50;3.00;1.00
72031;PMS5003;49185;42.320;23.198;2023-02-28T03:42:27;5.00;5.00;2.00
72031;PMS5003;49185;42.320;23.198;2023-02-28T03:44:57;5.25;5.25;2.00
72031;PMS5003;49185;42.320;23.198;2023-02-28T03:47:31;6.00;6.00;2.00
72031;PMS5003;49185;42.320;23.198;2023-02-28T03:52:29;3.00;3.00;1.00
72031;PMS5003;49185;42.320;23.198;2023-02-28T03:55:01;0.00;0.00;0.00
72031;PMS5003;49185;42.320;23.198;2023-02-28T04:00:24;5.25;5.25;2.00
72031;PMS5003;49185;42.320;23.198;2023-02-28T04:02:55;9.00;8.00;4.00
72031;PMS5003;49185;42.320;23.198;2023-02-28T04:05:21;5.00;4.50;2.25
72031;PMS5003;49185;42.320;23.198;2023-02-28T04:07:47;4.50;4.00;2.00
72031;PMS5003;49185;42.320;23.198;2023-02-28T04:10:13;5.67;4.67;1.00
72031;PMS5003;49185;42.320;23.198;2023-02-28T04:12:40;4.00;4.00;1.00
72031;PMS5003;49185;42.320;23.198;2023-02-28T04:15:06;4.33;3.00;0.00
72031;PMS5003;49185;42.320;23.198;2023-02-28T04:17:32;4.50;4.50;0.00
72031;PMS5003;49185;42.320;23.198;2023-02-28T04:19:58;4.00;4.00;0.00
72031;PMS5003;49185;42.320;23.198;2023-02-28T04:22:23;4.00;3.00;0.00
72031;PMS5003;49185;42.320;23.198;2023-02-28T04:24:48;4.00;2.00;0.00
72031;PMS5003;49185;42.320;23.198;2023-02-28T04:27:14;8.33;6.00;0.00
72031;PMS5003;49185;42.320;23.198;2023-02-28T04:29:39;7.67;7.00;1.00
72031;PMS5003;49185;42.320;23.198;2023-02-28T04:32:05;9.00;8.00;3.00
72031;PMS5003;49185;42.320;23.198;2023-02-28T04:34:31;10.33;8.33;4.33
72031;PMS5003;49185;42.320;23.198;2023-02-28T04:36:57;14.50;13.00;5.00
72031;PMS5003;49185;42.320;23.198;2023-02-28T04:39:23;10.00;9.00;4.00
72031;PMS5003;49185;42.320;23.198;2023-02-28T04:41:50;9.00;6.00;2.00
72031;PMS5003;49185;42.320;23.198;2023-02-28T04:44:16;5.00;4.00;1.00
72031;PMS5003;49185;42.320;23.198;2023-02-28T04:46:42;4.00;3.00;0.00
72031;PMS5003;49185;42.320;23.198;2023-02-28T04:49:09;3.00;3.00;0.00
72031;PMS5003;49185;42.320;23.198;2023-02-28T04:51:36;4.00;4.00;0.00
72031;PMS5003;49185;42.320;23.198;2023-02-28T04:54:02;5.33;4.00;0.00
72031;PMS5003;49185;42.320;23.198;2023-02-28T04:56:27;4.33;3.00;0.00
72031;PMS5003;49185;42.320;23.198;2023-02-28T04:58:53;4.33;4.00;0.00
72031;PMS5003;49185;42.320;23.198;2023-02-28T05:01:23;7.67;7.67;1.33
72031;PMS5003;49185;42.320;23.198;2023-02-28T05:04:00;9.00;8.25;2.50
72031;PMS5003;49185;42.320;23.198;2023-02-28T05:06:27;12.75;7.75;2.00
72031;PMS5003;49185;42.320;23.198;2023-02-28T05:08:54;10.25;7.25;3.00
72031;PMS5003;49185;42.320;23.198;2023-02-28T05:11:20;19.50;16.50;9.00
72031;PMS5003;49185;42.320;23.198;2023-02-28T05:13:57;23.25;19.50;11.50
72031;PMS5003;49185;42.320;23.198;2023-02-28T05:16:22;25.33;21.00;12.00
72031;PMS5003;49185;42.320;23.198;2023-02-28T05:18:48;20.33;18.00;7.33
72031;PMS5003;49185;42.320;23.198;2023-02-28T05:23:48;18.00;16.00;6.00
72031;PMS5003;49185;42.320;23.198;2023-02-28T05:26:13;19.67;18.33;8.00
72031;PMS5003;49185;42.320;23.198;2023-02-28T05:28:38;18.33;18.33;7.00
72031;PMS5003;49185;42.320;23.198;2023-02-28T05:31:04;16.00;15.00;6.00
72031;PMS5003;49185;42.320;23.198;2023-02-28T05:33:29;12.00;11.00;2.67
72031;PMS5003;49185;42.320;23.198;2023-02-28T05:35:55;7.00;5.00;0.00
72031;PMS5003;49185;42.320;23.198;2023-02-28T05:38:20;4.67;4.67;0.00
72031;PMS5003;49185;42.320;23.198;2023-02-28T05:40:46;4.00;4.00;0.00
72031;PMS5003;49185;42.320;23.198;2023-02-28T05:43:11;4.33;4.33;1.00
72031;PMS5003;49185;42.320;23.198;2023-02-28T05:45:36;5.00;4.00;1.00
72031;PMS5003;49185;42.320;23.198;2023-02-28T05:48:02;6.00;5.00;0.00
72031;PMS5003;49185;42.320;23.198;2023-02-28T05:50:27;9.00;6.00;0.00
72031;PMS5003;49185;42.320;23.198;2023-02-28T05:52:53;14.33;10.00;3.00
72031;PMS5003;49185;42.320;23.198;2023-02-28T05:55:18;13.33;9.33;2.00
72031;PMS5003;49185;42.320;23.198;2023-02-28T05:57:44;6.33;4.00;0.00
72031;PMS5003;49185;42.320;23.198;2023-02-28T06:00:10;4.33;4.33;0.00
72031;PMS5003;49185;42.320;23.198;2023-02-28T06:02:37;5.00;5.00;0.00
72031;PMS5003;49185;42.320;23.198;2023-02-28T06:05:04;5.00;5.00;0.00
72031;PMS5003;49185;42.320;23.198;2023-02-28T06:07:30;8.75;7.00;1.75
72031;PMS5003;49185;42.320;23.198;2023-02-28T06:09:55;9.00;9.00;2.33
72031;PMS5003;49185;42.320;23.198;2023-02-28T06:12:20;8.33;7.00;2.00
72031;PMS5003;49185;42.320;23.198;2023-02-28T06:14:46;8.00;5.00;2.00
72031;PMS5003;49185;42.320;23.198;2023-02-28T06:17:11;10.00;6.00;1.00
72031;PMS5003;49185;42.320;23.198;2023-02-28T06:19:37;9.33;6.67;2.00
72031;PMS5003;49185;42.320;23.198;2023-02-28T06:22:03;10.00;6.00;1.75
72031;PMS5003;49185;42.320;23.198;2023-02-28T06:24:29;7.50;7.00;2.75
72031;PMS5003;49185;42.320;23.198;2023-02-28T06:26:55;10.50;7.00;3.00
72031;PMS5003;49185;42.320;23.198;2023-02-28T06:29:21;7.33;5.00;1.00
72031;PMS5003;49185;42.320;23.198;2023-02-28T06:31:47;11.00;7.25;2.00
72031;PMS5003;49185;42.320;23.198;2023-02-28T06:34:13;5.50;4.75;1.00
72031;PMS5003;49185;42.320;23.198;2023-02-28T06:36:39;4.00;4.00;0.00
72031;PMS5003;49185;42.320;23.198;2023-02-28T06:39:06;6.00;6.00;0.00
72031;PMS5003;49185;42.320;23.198;2023-02-28T06:41:33;8.00;7.00;0.75
72031;PMS5003;49185;42.320;23.198;2023-02-28T06:43:59;12.00;9.00;3.25
72031;PMS5003;49185;42.320;23.198;2023-02-28T06:46:24;19.00;16.33;6.00
72031;PMS5003;49185;42.320;23.198;2023-02-28T06:48:50;19.33;18.67;7.33
72031;PMS5003;49185;42.320;23.198;2023-02-28T06:51:17;18.00;17.00;6.00
72031;PMS5003;49185;42.320;23.198;2023-02-28T06:53:44;18.50;17.25;6.00
72031;PMS5003;49185;42.320;23.198;2023-02-28T06:56:10;19.00;17.00;6.00
72031;PMS5003;49185;42.320;23.198;2023-02-28T06:58:38;23.00;21.50;9.50
72031;PMS5003;49185;42.320;23.198;2023-02-28T07:01:03;25.00;21.00;8.00
72031;PMS5003;49185;42.320;23.198;2023-02-28T07:03:31;20.25;18.50;7.25
72031;PMS5003;49185;42.320;23.198;2023-02-28T07:05:57;24.00;19.00;8.00
72031;PMS5003;49185;42.320;23.198;2023-02-28T07:08:23;20.33;19.00;6.33
72031;PMS5003;49185;42.320;23.198;2023-02-28T07:10:52;18.50;17.75;6.00
72031;PMS5003;49185;42.320;23.198;2023-02-28T07:13:19;17.00;16.50;5.50
72031;PMS5003;49185;42.320;23.198;2023-02-28T07:15:52;19.33;18.33;8.33
72031;PMS5003;49185;42.320;23.198;2023-02-28T07:18:20;18.00;16.00;6.75
72031;PMS5003;49185;42.320;23.198;2023-02-28T07:20:45;18.00;16.00;6.00
72031;PMS5003;49185;42.320;23.198;2023-02-28T07:23:11;15.00;13.67;4.00
72031;PMS5003;49185;42.320;23.198;2023-02-28T07:25:36;12.00;11.00;3.00
72031;PMS5003;49185;42.320;23.198;2023-02-28T07:28:02;11.00;9.00;3.00
72031;PMS5003;49185;42.320;23.198;2023-02-28T07:30:27;11.67;11.33;5.33
72031;PMS5003;49185;42.320;23.198;2023-02-28T07:32:52;14.67;13.67;6.00
72031;PMS5003;49185;42.320;23.198;2023-02-28T07:35:18;15.00;14.00;6.00
72031;PMS5003;49185;42.320;23.198;2023-02-28T07:37:43;16.00;16.00;5.00
72031;PMS5003;49185;42.320;23.198;2023-02-28T07:40:09;16.00;15.00;6.00
72031;PMS5003;49185;42.320;23.198;2023-02-28T07:42:36;18.75;16.75;6.00
72031;PMS5003;49185;42.320;23.198;2023-02-28T07:45:02;18.50;17.00;6.00
72031;PMS5003;49185;42.320;23.198;2023-02-28T07:47:30;16.00;15.00;5.00
72031;PMS5003;49185;42.320;23.198;2023-02-28T07:49:57;16.50;16.50;6.25
72031;PMS5003;49185;42.320;23.198;2023-02-28T07:52:23;17.00;14.50;5.00
72031;PMS5003;49185;42.320;23.198;2023-02-28T07:54:49;20.00;18.50;7.00
72031;PMS5003;49185;42.320;23.198;2023-02-28T07:57:15;23.25;20.25;7.25
72031;PMS5003;49185;42.320;23.198;2023-02-28T07:59:41;24.33;21.00;7.67
72031;PMS5003;49185;42.320;23.198;2023-02-28T08:02:06;27.25;22.00;7.00
72031;PMS5003;49185;42.320;23.198;2023-02-28T08:04:34;28.00;22.75;9.75
72031;PMS5003;49185;42.320;23.198;2023-02-28T08:07:00;24.00;22.00;8.33
72031;PMS5003;49185;42.320;23.198;2023-02-28T08:09:25;22.00;19.33;8.00
72031;PMS5003;49185;42.320;23.198;2023-02-28T08:11:51;21.00;18.00;7.67
72031;PMS5003;49185;42.320;23.198;2023-02-28T08:14:16;16.67;16.00;6.00
72031;PMS5003;49185;42.320;23.198;2023-02-28T08:16:41;17.00;14.33;5.00
72031;PMS5003;49185;42.320;23.198;2023-02-28T08:19:07;16.00;14.33;4.00
72031;PMS5003;49185;42.320;23.198;2023-02-28T08:21:32;16.00;15.00;6.00
72031;PMS5003;49185;42.320;23.198;2023-02-28T08:23:58;16.00;14.00;4.00
72031;PMS5003;49185;42.320;23.198;2023-02-28T08:26:24;15.00;13.00;4.00
72031;PMS5003;49185;42.320;23.198;2023-02-28T08:28:49;14.00;11.33;5.00
72031;PMS5003;49185;42.320;23.198;2023-02-28T08:31:15;15.33;11.67;5.00
72031;PMS5003;49185;42.320;23.198;2023-02-28T08:33:41;20.75;18.50;7.75
72031;PMS5003;49185;42.320;23.198;2023-02-28T08:36:08;22.00;19.50;7.00
72031;PMS5003;49185;42.320;23.198;2023-02-28T08:38:34;21.00;20.25;8.00
72031;PMS5003;49185;42.320;23.198;2023-02-28T08:41:01;20.50;18.50;6.00
72031;PMS5003;49185;42.320;23.198;2023-02-28T08:43:29;16.50;16.00;6.00
72031;PMS5003;49185;42.320;23.198;2023-02-28T08:45:55;19.67;16.33;7.00
72031;PMS5003;49185;42.320;23.198;2023-02-28T08:48:21;21.50;17.50;7.00
72031;PMS5003;49185;42.320;23.198;2023-02-28T08:50:56;19.00;17.33;5.33
72031;PMS5003;49185;42.320;23.198;2023-02-28T08:53:26;20.00;17.00;6.75
72031;PMS5003;49185;42.320;23.198;2023-02-28T08:55:56;21.67;18.00;7.33
72031;PMS5003;49185;42.320;23.198;2023-02-28T08:58:25;20.25;18.50;8.00
72031;PMS5003;49185;42.320;23.198;2023-02-28T09:00:51;19.50;19.00;7.00
72031;PMS5003;49185;42.320;23.198;2023-02-28T09:03:17;18.00;16.50;5.25
72031;PMS5003;49185;42.320;23.198;2023-02-28T09:05:59;15.00;12.67;4.00
72031;PMS5003;49185;42.320;23.198;2023-02-28T09:08:26;13.00;8.50;3.00
72031;PMS5003;49185;42.320;23.198;2023-02-28T09:10:53;10.00;8.75;2.00
72031;PMS5003;49185;42.320;23.198;2023-02-28T09:13:18;11.00;10.00;3.00
72031;PMS5003;49185;42.320;23.198;2023-02-28T09:15:44;10.33;9.33;3.00
72031;PMS5003;49185;42.320;23.198;2023-02-28T09:18:10;10.00;9.00;4.00
72031;PMS5003;49185;42.320;23.198;2023-02-28T09:20:39;8.00;7.00;3.00
72031;PMS5003;49185;42.320;23.198;2023-02-28T09:23:06;11.00;11.00;3.00
72031;PMS5003;49185;42.320;23.198;2023-02-28T09:25:32;9.00;9.00;3.25
72031;PMS5003;49185;42.320;23.198;2023-02-28T09:27:57;11.33;9.33;2.00
72031;PMS5003;49185;42.320;23.198;2023-02-28T09:30:23;13.00;11.00;3.00
72031;PMS5003;49185;42.320;23.198;2023-02-28T09:32:48;8.67;7.00;3.00
72031;PMS5003;49185;42.320;23.198;2023-02-28T09:35:14;9.00;7.00;3.33
72031;PMS5003;49185;42.320;23.198;2023-02-28T09:37:39;15.33;11.00;4.00
72031;PMS5003;49185;42.320;23.198;2023-02-28T09:40:05;18.00;13.33;6.33
72031;PMS5003;49185;42.320;23.198;2023-02-28T09:42:31;19.00;15.50;6.00
72031;PMS5003;49185;42.320;23.198;2023-02-28T09:44:59;18.00;15.25;6.00
72031;PMS5003;49185;42.320;23.198;2023-02-28T09:47:32;16.00;15.00;5.00
72031;PMS5003;49185;42.320;23.198;2023-02-28T09:52:51;16.50;14.50;5.00
72031;PMS5003;49185;42.320;23.198;2023-02-28T09:55:20;16.50;14.75;4.00
72031;PMS5003;49185;42.320;23.198;2023-02-28T09:57:50;15.00;14.00;5.00
72031;PMS5003;49185;42.320;23.198;2023-02-28T10:00:24;15.50;14.00;5.00
72031;PMS5003;49185;42.320;23.198;2023-02-28T10:05:51;16.50;14.25;6.25
72031;PMS5003;49185;42.320;23.198;2023-02-28T10:10:57;17.25;17.00;7.00
72031;PMS5003;49185;42.320;23.198;2023-02-28T10:16:01;18.50;17.00;6.00
72031;PMS5003;49185;42.320;23.198;2023-02-28T10:19:02;17.25;16.50;4.00
72031;PMS5003;49185;42.320;23.198;2023-02-28T10:24:13;20.50;20.00;6.00
72031;PMS5003;49185;42.320;23.198;2023-02-28T10:26:45;21.00;19.50;6.00
72031;PMS5003;49185;42.320;23.198;2023-02-28T10:29:12;23.00;19.00;6.50
72031;PMS5003;49185;42.320;23.198;2023-02-28T10:31:38;22.00;17.00;7.00
72031;PMS5003;49185;42.320;23.198;2023-02-28T10:34:05;21.50;20.00;8.00
72031;PMS5003;49185;42.320;23.198;2023-02-28T10:36:30;23.00;20.67;7.67
72031;PMS5003;49185;42.320;23.198;2023-02-28T10:38:56;25.67;23.67;10.00
72031;PMS5003;49185;42.320;23.198;2023-02-28T10:41:31;25.00;22.00;11.00
72031;PMS5003;49185;42.320;23.198;2023-02-28T10:44:11;26.50;23.00;10.00
72031;PMS5003;49185;42.320;23.198;2023-02-28T10:46:48;23.25;22.00;8.50
72031;PMS5003;49185;42.320;23.198;2023-02-28T10:49:21;20.00;20.00;8.00
72031;PMS5003;49185;42.320;23.198;2023-02-28T10:51:57;22.00;20.50;9.00
72031;PMS5003;49185;42.320;23.198;2023-02-28T10:57:06;21.25;19.50;7.00
72031;PMS5003;49185;42.320;23.198;2023-02-28T10:59:34;20.00;19.25;6.00
72031;PMS5003;49185;42.320;23.198;2023-02-28T11:02:00;21.50;21.00;7.00
72031;PMS5003;49185;42.320;23.198;2023-02-28T11:06:57;23.00;19.00;7.00
72031;PMS5003;49185;42.320;23.198;2023-02-28T11:09:26;23.00;18.00;7.50
72031;PMS5003;49185;42.320;23.198;2023-02-28T11:11:56;23.00;20.50;8.00
72031;PMS5003;49185;42.320;23.198;2023-02-28T11:14:25;21.00;21.00;8.00
72031;PMS5003;49185;42.320;23.198;2023-02-28T11:16:55;20.25;19.75;6.75
72031;PMS5003;49185;42.320;23.198;2023-02-28T11:19:33;22.50;20.75;8.50
72031;PMS5003;49185;42.320;23.198;2023-02-28T11:22:09;23.50;22.00;9.00
72031;PMS5003;49185;42.320;23.198;2023-02-28T11:24:35;21.00;19.00;8.00
72031;PMS5003;49185;42.320;23.198;2023-02-28T11:27:14;24.25;21.75;9.00
72031;PMS5003;49185;42.320;23.198;2023-02-28T11:29:50;21.00;20.00;6.50
72031;PMS5003;49185;42.320;23.198;2023-02-28T11:32:18;22.33;20.33;9.00
72031;PMS5003;49185;42.320;23.198;2023-02-28T11:34:46;21.75;20.50;9.00
72031;PMS5003;49185;42.320;23.198;2023-02-28T11:37:24;21.50;20.50;7.00
72031;PMS5003;49185;42.320;23.198;2023-02-28T11:39:52;20.00;19.50;6.00
72031;PMS5003;49185;42.320;23.198;2023-02-28T11:42:39;19.67;17.00;6.00
72031;PMS5003;49185;42.320;23.198;2023-02-28T11:53:56;19.50;18.50;7.00
72031;PMS5003;49185;42.320;23.198;2023-02-28T11:56:48;23.50;20.00;8.00
72031;PMS5003;49185;42.320;23.198;2023-02-28T12:20:37;19.00;17.00;6.00
72031;PMS5003;49185;42.320;23.198;2023-02-28T12:26:13;19.50;18.25;5.75
72031;PMS5003;49185;42.320;23.198;2023-02-28T12:28:46;20.00;20.00;7.00
72031;PMS5003;49185;42.320;23.198;2023-02-28T12:33:48;17.67;17.00;6.67
72031;PMS5003;49185;42.320;23.198;2023-02-28T12:36:18;20.00;18.00;8.50
72031;PMS5003;49185;42.320;23.198;2023-02-28T12:38:45;24.00;21.00;10.00
72031;PMS5003;49185;42.320;23.198;2023-02-28T12:41:17;25.50;23.25;10.50
72031;PMS5003;49185;42.320;23.198;2023-02-28T12:43:48;27.50;25.50;12.00
72031;PMS5003;49185;42.320;23.198;2023-02-28T12:46:23;25.50;25.50;13.00
72031;PMS5003;49185;42.320;23.198;2023-02-28T12:49:06;26.25;23.50;12.00
72031;PMS5003;49185;42.320;23.198;2023-02-28T12:51:37;32.25;28.50;16.75
72031;PMS5003;49185;42.320;23.198;2023-02-28T13:10:16;27.00;22.50;10.25
72031;PMS5003;49185;42.320;23.198;2023-02-28T13:12:47;25.00;21.00;8.00
72031;PMS5003;49185;42.320;23.198;2023-02-28T13:15:17;23.25;20.00;8.75
72031;PMS5003;49185;42.320;23.198;2023-02-28T13:17:43;22.50;20.00;9.00
72031;PMS5003;49185;42.320;23.198;2023-02-28T13:20:15;25.75;20.50;10.75
72031;PMS5003;49185;42.320;23.198;2023-02-28T13:22:44;24.00;20.00;10.00
72031;PMS5003;49185;42.320;23.198;2023-02-28T13:27:57;26.00;21.00;11.00
72031;PMS5003;49185;42.320;23.198;2023-02-28T13:38:33;23.50;22.00;10.00
72031;PMS5003;49185;42.320;23.198;2023-02-28T13:41:47;23.25;20.00;8.00
72031;PMS5003;49185;42.320;23.198;2023-02-28T13:49:31;22.00;19.67;8.00
72031;PMS5003;49185;42.320;23.198;2023-02-28T14:05:35;19.75;16.75;7.50
72031;PMS5003;49185;42.320;23.198;2023-02-28T14:08:12;20.00;17.50;8.00
72031;PMS5003;49185;42.320;23.198;2023-02-28T14:15:44;24.75;20.00;8.75
72031;PMS5003;49185;42.320;23.198;2023-02-28T14:18:20;19.00;17.25;6.50
72031;PMS5003;49185;42.320;23.198;2023-02-28T14:21:01;19.00;17.00;6.75
72031;PMS5003;49185;42.320;23.198;2023-02-28T14:37:50;27.25;24.25;13.00
72031;PMS5003;49185;42.320;23.198;2023-02-28T14:40:21;25.25;24.00;14.00
72031;PMS5003;49185;42.320;23.198;2023-02-28T14:43:00;26.25;25.00;12.25
72031;PMS5003;49185;42.320;23.198;2023-02-28T14:45:28;27.25;25.50;15.00
72031;PMS5003;49185;42.320;23.198;2023-02-28T14:47:55;33.50;30.50;17.25
72031;PMS5003;49185;42.320;23.198;2023-02-28T14:50:24;28.00;25.50;13.25
72031;PMS5003;49185;42.320;23.198;2023-02-28T14:52:54;22.50;21.50;10.00
72031;PMS5003;49185;42.320;23.198;2023-02-28T14:55:43;23.00;21.50;9.00
72031;PMS5003;49185;42.320;23.198;2023-02-28T14:58:29;22.00;20.50;8.00
72031;PMS5003;49185;42.320;23.198;2023-02-28T15:00:58;20.25;16.00;6.00
72031;PMS5003;49185;42.320;23.198;2023-02-28T15:05:55;22.00;18.00;8.00
72031;PMS5003;49185;42.320;23.198;2023-02-28T15:08:22;22.00;19.00;8.75
72031;PMS5003;49185;42.320;23.198;2023-02-28T15:10:59;21.75;18.00;8.00
72031;PMS5003;49185;42.320;23.198;2023-02-28T15:18:59;20.75;18.50;8.00
72031;PMS5003;49185;42.320;23.198;2023-02-28T15:21:28;24.50;22.75;10.25
72031;PMS5003;49185;42.320;23.198;2023-02-28T15:24:07;23.00;21.00;8.00
72031;PMS5003;49185;42.320;23.198;2023-02-28T15:26:45;22.50;20.00;8.00
72031;PMS5003;49185;42.320;23.198;2023-02-28T15:29:15;20.00;18.75;8.00
72031;PMS5003;49185;42.320;23.198;2023-02-28T15:31:46;24.25;23.00;11.50
72031;PMS5003;49185;42.320;23.198;2023-02-28T15:34:19;26.75;20.75;11.00
72031;PMS5003;49185;42.320;23.198;2023-02-28T15:36:47;20.50;17.00;6.00
72031;PMS5003;49185;42.320;23.198;2023-02-28T15:39:26;18.25;17.00;7.00
72031;PMS5003;49185;42.320;23.198;2023-02-28T15:42:09;21.75;20.50;9.25
72031;PMS5003;49185;42.320;23.198;2023-02-28T15:44:42;28.75;26.50;12.00
72031;PMS5003;49185;42.320;23.198;2023-02-28T15:49:51;25.75;22.50;12.00
72031;PMS5003;49185;42.320;23.198;2023-02-28T15:52:42;23.00;21.50;10.50
72031;PMS5003;49185;42.320;23.198;2023-02-28T15:55:11;20.75;20.50;7.25
72031;PMS5003;49185;42.320;23.198;2023-02-28T15:57:45;19.75;19.00;8.00
72031;PMS5003;49185;42.320;23.198;2023-02-28T16:00:14;20.00;18.50;8.00
72031;PMS5003;49185;42.320;23.198;2023-02-28T16:02:41;20.75;20.25;9.00
72031;PMS5003;49185;42.320;23.198;2023-02-28T16:07:35;23.25;21.50;9.50
72031;PMS5003;49185;42.320;23.198;2023-02-28T16:10:06;24.75;21.00;10.00
72031;PMS5003;49185;42.320;23.198;2023-02-28T16:12:35;22.00;20.00;10.25
72031;PMS5003;49185;42.320;23.198;2023-02-28T16:15:02;22.00;21.50;10.00
72031;PMS5003;49185;42.320;23.198;2023-02-28T16:17:35;22.00;20.00;10.00
72031;PMS5003;49185;42.320;23.198;2023-02-28T16:20:13;19.00;17.50;8.00
72031;PMS5003;49185;42.320;23.198;2023-02-28T16:22:41;17.25;16.00;6.00
72031;PMS5003;49185;42.320;23.198;2023-02-28T16:25:07;16.50;16.50;8.00
72031;PMS5003;49185;42.320;23.198;2023-02-28T16:27:43;17.50;17.50;8.50
72031;PMS5003;49185;42.320;23.198;2023-02-28T16:30:45;17.75;17.75;8.00
72031;PMS5003;49185;42.320;23.198;2023-02-28T16:33:03;19.00;18.00;8.75
72031;PMS5003;49185;42.320;23.198;2023-02-28T16:35:29;20.33;18.00;9.33
72031;PMS5003;49185;42.320;23.198;2023-02-28T16:37:54;22.33;19.00;9.00
72031;PMS5003;49185;42.320;23.198;2023-02-28T16:40:24;20.00;18.00;8.00
72031;PMS5003;49185;42.320;23.198;2023-02-28T16:42:51;19.25;19.00;7.50
72031;PMS5003;49185;42.320;23.198;2023-02-28T16:45:24;18.00;17.25;7.75
72031;PMS5003;49185;42.320;23.198;2023-02-28T16:47:51;19.75;17.00;6.50
72031;PMS5003;49185;42.320;23.198;2023-02-28T16:50:19;18.00;15.50;7.00
72031;PMS5003;49185;42.320;23.198;2023-02-28T16:52:46;19.50;17.50;7.50
72031;PMS5003;49185;42.320;23.198;2023-02-28T16:55:11;19.33;17.00;7.33
72031;PMS5003;49185;42.320;23.198;2023-02-28T16:57:37;19.00;18.00;9.00
72031;PMS5003;49185;42.320;23.198;2023-02-28T17:00:04;18.00;18.00;7.50
72031;PMS5003;49185;42.320;23.198;2023-02-28T17:02:30;17.00;16.00;7.50